Time;durP1;ratioP1;P1;durP2;ratioP2;P2;SDS_P1;SDS_P2;PMS_P1;PMS_P2;Temp;Humidity;BMP_temperature;BMP_pressure;BME280_temperature;BME280_humidity;BME280_pressure;Samples;Min_cycle;Max_cycle;Signal;HPM_P1;HPM_P2
2022/01/17 00:01:00;;;;;;;;;7.25;7.25;;;;;1.21;72.52;101582.13;6184517;23;12163;-73
2022/01/17 00:03:56;;;;;;;;;9.00;9.00;;;;;1.36;72.42;101574.19;6183898;23;12222;-71
2022/01/17 00:06:51;;;;;;;;;13.25;8.50;;;;;1.19;72.44;101570.66;6184824;23;11559;-71
2022/01/17 00:09:47;;;;;;;;;11.00;10.00;;;;;1.42;71.49;101572.38;6183645;23;12177;-71
2022/01/17 00:12:47;;;;;;;;;10.50;10.00;;;;;1.38;71.66;101562.00;6183928;23;11533;-72
2022/01/17 00:15:49;;;;;;;;;9.00;8.00;;;;;1.42;71.21;101561.47;6183941;23;11484;-72
2022/01/17 00:21:41;;;;;;;;;9.00;9.00;;;;;1.32;70.13;101562.16;6184131;23;11476;-73
2022/01/17 00:24:18;;;;;;;;;7.75;7.75;;;;;1.44;69.14;101551.97;6192281;23;11440;-71
2022/01/17 00:27:15;;;;;;;;;12.00;12.00;;;;;1.32;69.84;101545.78;6183801;23;11471;-72
2022/01/17 00:30:10;;;;;;;;;6.50;6.50;;;;;1.37;69.44;101548.59;6183843;23;11588;-72
2022/01/17 00:33:06;;;;;;;;;7.75;7.75;;;;;1.35;69.39;101542.56;6183672;23;11462;-72
2022/01/17 00:36:02;;;;;;;;;9.50;9.50;;;;;1.16;69.30;101549.34;6183661;23;11584;-72
2022/01/17 00:38:58;;;;;;;;;9.50;9.50;;;;;1.28;69.50;101541.91;6183481;23;11469;-72
2022/01/17 00:41:54;;;;;;;;;7.75;7.75;;;;;1.24;68.90;101538.84;6183634;23;11566;-72
2022/01/17 00:44:49;;;;;;;;;9.00;9.00;;;;;1.34;68.91;101530.84;6183706;23;12232;-71
2022/01/17 00:47:45;;;;;;;;;8.50;8.50;;;;;1.39;68.64;101525.47;6183749;23;11459;-71
2022/01/17 00:50:41;;;;;;;;;7.00;7.00;;;;;1.39;68.09;101516.47;6183676;23;11509;-71
2022/01/17 00:53:37;;;;;;;;;15.50;13.75;;;;;1.48;68.58;101520.41;6183366;23;11436;-72
2022/01/17 00:56:32;;;;;;;;;11.25;10.00;;;;;1.33;67.92;101518.28;6183715;23;11503;-71
2022/01/17 00:59:28;;;;;;;;;10.00;10.00;;;;;1.37;68.44;101522.16;6183280;23;11509;-71
2022/01/17 01:02:24;;;;;;;;;6.75;6.50;;;;;1.41;68.44;101508.03;6183568;23;11462;-72
2022/01/17 01:05:20;;;;;;;;;6.50;6.50;;;;;1.21;67.81;101509.38;6183678;23;11440;-72
2022/01/17 01:08:16;;;;;;;;;6.50;6.50;;;;;1.11;68.40;101499.13;6183384;23;11490;-72
2022/01/17 01:11:12;;;;;;;;;7.75;7.50;;;;;1.15;68.09;101498.63;6185076;23;11576;-72
2022/01/17 01:14:07;;;;;;;;;8.50;8.50;;;;;1.21;67.79;101487.56;6185666;23;11453;-72
2022/01/17 01:17:08;;;;;;;;;7.00;7.00;;;;;1.45;67.83;101485.47;6186738;23;11485;-72
2022/01/17 01:20:27;;;;;;;;;9.75;8.00;;;;;1.36;68.34;101486.97;6185579;23;11466;-72
2022/01/17 01:29:55;;;;;;;;;16.75;12.50;;;;;1.15;69.91;101468.66;6184691;23;11452;-72
2022/01/17 01:32:55;;;;;;;;;5.00;5.00;;;;;1.33;69.53;101462.94;6185512;23;11608;-72
2022/01/17 01:35:57;;;;;;;;;12.33;10.67;;;;;1.35;69.55;101461.63;6185385;23;12180;-71
2022/01/17 01:38:53;;;;;;;;;7.00;7.00;;;;;1.11;70.57;101455.53;6185261;23;11597;-72
2022/01/17 01:41:50;;;;;;;;;5.67;5.67;;;;;0.92;72.46;101459.63;6185064;23;11449;-71
2022/01/17 01:44:52;;;;;;;;;8.50;8.50;;;;;0.99;71.87;101457.53;6185071;23;11457;-71
2022/01/17 01:47:48;;;;;;;;;12.00;9.50;;;;;1.03;72.30;101461.41;6185273;23;11433;-72
2022/01/17 01:50:43;;;;;;;;;7.00;7.00;;;;;1.14;72.64;101456.13;6185390;23;11650;-72
2022/01/17 01:53:39;;;;;;;;;6.50;6.50;;;;;1.20;72.56;101442.31;6185119;23;11461;-72
2022/01/17 01:56:37;;;;;;;;;5.00;5.00;;;;;0.98;73.05;101438.72;6185303;23;11561;-71
2022/01/17 01:59:32;;;;;;;;;7.33;7.33;;;;;1.22;72.63;101433.88;6185206;23;11470;-71
2022/01/17 02:02:28;;;;;;;;;8.00;8.00;;;;;1.24;72.96;101426.31;6185156;23;12211;-71
2022/01/17 02:05:25;;;;;;;;;10.00;10.00;;;;;1.15;72.86;101423.19;6185219;23;11462;-72
2022/01/17 02:08:20;;;;;;;;;12.25;11.50;;;;;1.11;73.68;101431.03;6185134;23;11474;-72
2022/01/17 02:11:17;;;;;;;;;2.00;2.00;;;;;1.01;73.18;101427.34;6184883;23;11583;-71
2022/01/17 02:14:13;;;;;;;;;14.67;14.67;;;;;0.90;73.56;101425.50;6185214;23;11456;-71
2022/01/17 02:17:09;;;;;;;;;11.67;11.67;;;;;0.87;74.33;101424.13;6185071;23;11493;-71
2022/01/17 02:20:09;;;;;;;;;9.33;9.33;;;;;0.86;73.94;101427.09;6185254;23;12265;-70
2022/01/17 02:23:06;;;;;;;;;10.00;10.00;;;;;0.92;73.13;101423.34;6184090;23;12191;-72
2022/01/17 02:26:02;;;;;;;;;8.25;7.75;;;;;0.86;73.08;101414.31;6185341;23;11491;-72
2022/01/17 02:28:58;;;;;;;;;8.00;7.00;;;;;0.92;72.89;101415.19;6184995;23;11462;-72
2022/01/17 02:31:54;;;;;;;;;5.50;5.50;;;;;0.78;72.67;101422.88;6185195;23;11482;-72
2022/01/17 02:34:49;;;;;;;;;9.00;9.00;;;;;0.78;71.42;101426.44;6184934;23;11495;-72
2022/01/17 02:37:45;;;;;;;;;7.00;7.00;;;;;0.86;70.72;101414.31;6185020;23;11446;-70
2022/01/17 02:40:41;;;;;;;;;2.00;2.00;;;;;0.74;69.77;101422.53;6185127;23;11453;-71
2022/01/17 02:43:37;;;;;;;;;7.00;7.00;;;;;0.77;70.23;101411.19;6184557;23;11448;-71
2022/01/17 02:46:33;;;;;;;;;9.00;7.25;;;;;0.85;69.06;101406.38;6184760;23;11486;-71
2022/01/17 02:49:29;;;;;;;;;14.33;11.33;;;;;1.00;67.27;101404.72;6184967;23;11570;-71
2022/01/17 02:52:24;;;;;;;;;7.00;7.00;;;;;0.92;65.89;101387.94;6184842;23;12097;-71
2022/01/17 02:55:20;;;;;;;;;8.67;8.67;;;;;0.82;66.00;101384.00;6184863;23;11466;-70
2022/01/17 02:58:20;;;;;;;;;10.00;10.00;;;;;0.78;65.45;101379.31;6184859;23;11528;-72
2022/01/17 03:01:20;;;;;;;;;13.00;13.00;;;;;0.77;65.37;101369.50;6184631;23;11582;-72
2022/01/17 03:04:15;;;;;;;;;9.00;7.00;;;;;0.76;64.81;101368.66;6184733;23;11476;-72
2022/01/17 03:07:11;;;;;;;;;10.00;8.67;;;;;0.87;64.96;101363.38;6184759;23;11484;-72
2022/01/17 03:10:13;;;;;;;;;10.00;10.00;;;;;0.77;66.09;101359.44;6184583;23;11500;-72
2022/01/17 03:13:15;;;;;;;;;8.00;8.00;;;;;0.88;65.28;101356.84;6184589;23;11580;-72
2022/01/17 03:16:14;;;;;;;;;11.33;11.33;;;;;0.74;65.88;101359.91;6184504;23;11486;-71
2022/01/17 03:19:09;;;;;;;;;12.33;12.33;;;;;0.68;66.34;101358.19;6184559;23;11496;-71
2022/01/17 03:22:05;;;;;;;;;13.67;13.67;;;;;0.81;66.92;101355.13;6164630;23;11544;-71
2022/01/17 03:25:01;;;;;;;;;13.00;13.00;;;;;0.95;66.34;101361.06;6184667;23;8909;-71
2022/01/17 03:27:58;;;;;;;;;19.33;17.67;;;;;0.96;66.75;101361.88;6184685;23;11555;-72
2022/01/17 03:30:55;;;;;;;;;13.00;13.00;;;;;0.86;66.73;101364.47;6184606;23;11548;-71
2022/01/17 03:33:51;;;;;;;;;11.67;11.67;;;;;0.93;66.91;101357.75;6183340;23;11535;-71
2022/01/17 03:36:47;;;;;;;;;13.00;13.00;;;;;0.93;67.70;101355.03;6185095;23;11485;-72
2022/01/17 03:39:42;;;;;;;;;13.00;10.00;;;;;0.99;67.78;101337.66;6184387;23;11439;-71
2022/01/17 03:42:39;;;;;;;;;12.50;10.00;;;;;1.02;68.70;101347.25;6185116;23;11473;-71
2022/01/17 03:45:35;;;;;;;;;13.67;13.67;;;;;0.87;69.54;101338.88;6184289;23;12252;-71
2022/01/17 03:48:32;;;;;;;;;14.00;13.33;;;;;0.94;69.72;101336.78;6184474;23;11486;-71
2022/01/17 03:51:27;;;;;;;;;13.67;13.67;;;;;0.75;70.82;101344.41;6184227;23;11538;-71
2022/01/17 03:54:23;;;;;;;;;11.67;11.67;;;;;0.85;70.44;101336.41;6184076;23;11506;-71
2022/01/17 03:57:18;;;;;;;;;13.33;13.33;;;;;0.79;71.49;101329.22;6184266;23;11564;-71
2022/01/17 04:00:23;;;;;;;;;14.33;13.67;;;;;0.89;70.99;101321.19;6183835;23;11479;-70
2022/01/17 04:03:19;;;;;;;;;13.00;10.33;;;;;0.81;71.01;101321.63;6183868;23;11694;-71
2022/01/17 04:06:18;;;;;;;;;9.75;9.75;;;;;0.87;71.65;101314.34;6164333;23;11698;-71
2022/01/17 04:09:14;;;;;;;;;13.33;13.33;;;;;0.72;71.97;101309.53;6183923;23;11494;-72
2022/01/17 04:12:10;;;;;;;;;14.00;14.00;;;;;0.61;72.94;101305.81;6184079;23;11488;-72
2022/01/17 04:15:07;;;;;;;;;13.67;12.33;;;;;0.59;73.43;101297.06;6185122;23;11492;-71
2022/01/17 04:18:05;;;;;;;;;10.33;10.33;;;;;0.71;72.49;101297.81;6184198;23;11492;-70
2022/01/17 04:21:03;;;;;;;;;12.33;12.33;;;;;0.56;73.21;101297.59;6185692;23;11437;-72
2022/01/17 04:23:58;;;;;;;;;14.33;11.33;;;;;0.41;73.40;101287.28;6183412;23;11484;-71
2022/01/17 04:26:54;;;;;;;;;9.00;7.67;;;;;0.44;73.64;101277.78;6183868;23;11503;-71
2022/01/17 04:29:49;;;;;;;;;15.67;15.67;;;;;0.44;73.99;101273.16;6183579;23;11477;-71
2022/01/17 04:32:17;;;;;;;;;14.33;14.33;;;;;0.36;74.68;101272.78;6193899;23;8804;-71
2022/01/17 04:35:20;;;;;;;;;16.00;16.00;;;;;0.39;74.98;101269.56;6183538;23;11511;-71
2022/01/17 04:38:18;;;;;;;;;11.67;11.67;;;;;0.21;75.99;101263.28;6183814;23;8826;-71
2022/01/17 04:41:17;;;;;;;;;13.00;13.00;;;;;0.34;75.68;101266.75;6183830;23;8786;-72
2022/01/17 04:47:27;;;;;;;;;16.33;15.67;;;;;0.26;74.39;101266.09;6183524;23;11486;-71
2022/01/17 04:50:25;;;;;;;;;12.67;12.67;;;;;0.21;75.26;101265.19;6183396;23;11489;-72
2022/01/17 04:53:21;;;;;;;;;16.00;16.00;;;;;0.21;74.42;101257.84;6183131;23;11486;-72
2022/01/17 04:56:17;;;;;;;;;15.00;14.33;;;;;0.10;75.17;101252.50;6184013;23;8805;-71
2022/01/17 04:59:12;;;;;;;;;10.00;10.00;;;;;0.17;75.44;101248.56;6183716;23;12219;-71
2022/01/17 05:02:09;;;;;;;;;22.00;21.33;;;;;0.07;76.02;101247.53;6183380;23;12162;-71
2022/01/17 05:04:51;;;;;;;;;13.00;13.00;;;;;0.26;75.41;101243.50;6137113;23;11505;-71
2022/01/17 05:07:19;;;;;;;;;14.67;14.67;;;;;0.13;75.17;101241.13;6184807;23;11502;-70
2022/01/17 05:09:47;;;;;;;;;15.67;15.67;;;;;0.10;75.48;101247.06;6194000;23;11590;-71
2022/01/17 05:12:15;;;;;;;;;19.33;17.00;;;;;0.25;74.93;101236.44;6193480;23;11505;-70
2022/01/17 05:14:58;;;;;;;;;18.00;15.00;;;;;0.19;75.69;101226.53;6184170;23;9503;-70
2022/01/17 05:18:12;;;;;;;;;13.67;13.67;;;;;0.19;75.26;101216.47;6183777;23;8835;-71
2022/01/17 05:21:08;;;;;;;;;15.33;15.33;;;;;0.40;79.01;101214.88;6183006;23;8797;-74
2022/01/17 05:23:36;;;;;;;;;11.33;11.33;;;;;0.56;81.91;101205.03;6166894;23;11569;-75
2022/01/17 05:26:31;;;;;;;;;10.67;10.67;;;;;1.36;89.67;101181.72;6183304;23;11497;-74
2022/01/17 05:28:59;;;;;;;;;16.00;13.33;;;;;2.22;96.56;101187.03;6175442;23;11524;-75
2022/01/17 05:31:55;;;;;;;;;5.00;5.00;;;;;1.71;90.90;101186.69;6184235;23;11568;-75
2022/01/17 05:34:50;;;;;;;;;14.00;14.00;;;;;2.43;98.66;101177.91;6183915;23;11569;-76
2022/01/17 05:37:18;;;;;;;;;14.50;14.25;;;;;1.93;90.02;101178.41;6191671;23;11530;-74
2022/01/17 05:40:16;;;;;;;;;17.25;16.00;;;;;1.52;83.07;101177.22;6184665;23;11576;-73
2022/01/17 05:43:11;;;;;;;;;17.00;17.00;;;;;2.35;94.84;101172.94;6183053;23;11678;-72
2022/01/17 05:46:07;;;;;;;;;17.00;14.00;;;;;2.25;87.43;101180.25;6184658;23;11533;-74
2022/01/17 05:49:04;;;;;;;;;16.75;16.75;;;;;1.94;81.79;101182.78;6201259;23;12344;-73
2022/01/17 05:51:59;;;;;;;;;13.50;13.50;;;;;1.92;82.61;101176.78;6184483;23;11534;-73
2022/01/17 05:54:55;;;;;;;;;18.75;17.00;;;;;1.88;79.72;101173.72;6184461;23;11564;-73
2022/01/17 05:57:51;;;;;;;;;17.00;17.00;;;;;2.63;88.10;101165.47;6183497;23;11588;-73
2022/01/17 06:00:46;;;;;;;;;14.00;14.00;;;;;2.33;81.85;101168.84;6185851;23;11559;-72
2022/01/17 06:03:42;;;;;;;;;17.00;17.00;;;;;1.58;77.41;101173.47;6185729;23;11585;-72
2022/01/17 06:06:38;;;;;;;;;14.25;14.25;;;;;2.68;90.85;101158.09;6186122;23;11620;-73
2022/01/17 06:09:33;;;;;;;;;11.75;11.50;;;;;1.49;75.12;101169.59;6186138;23;11635;-72
2022/01/17 06:12:29;;;;;;;;;9.00;8.25;;;;;0.51;75.19;101158.69;6186220;23;11642;-72
2022/01/17 06:15:25;;;;;;;;;13.67;13.67;;;;;0.01;77.13;101156.09;6186312;23;11536;-71
2022/01/17 06:18:21;;;;;;;;;12.33;12.33;;;;;0.03;78.52;101151.22;6186068;23;11516;-71
2022/01/17 06:21:16;;;;;;;;;18.33;15.67;;;;;-0.05;78.65;101141.59;6186296;23;8798;-72
2022/01/17 06:24:12;;;;;;;;;13.67;13.67;;;;;-0.20;79.17;101135.94;6186134;23;8822;-72
2022/01/17 06:27:07;;;;;;;;;21.33;19.00;;;;;-0.24;79.88;101140.19;6185673;23;8817;-72
2022/01/17 06:29:40;;;;;;;;;12.00;12.00;;;;;-0.25;79.50;101136.66;6187574;23;8873;-72
2022/01/17 06:32:08;;;;;;;;;21.33;19.67;;;;;-0.30;79.33;101142.03;6185332;23;8802;-71
2022/01/17 06:34:55;;;;;;;;;17.67;17.67;;;;;-0.28;80.22;101135.28;6165044;23;8872;-70
2022/01/17 06:37:25;;;;;;;;;13.33;11.33;;;;;-0.20;79.56;101131.31;6194975;23;8782;-73
2022/01/17 06:40:21;;;;;;;;;9.67;9.67;;;;;-0.23;80.34;101129.09;6165428;23;8793;-72
2022/01/17 06:43:17;;;;;;;;;14.00;14.00;;;;;-0.23;80.06;101120.09;6184719;23;8797;-72
2022/01/17 06:46:14;;;;;;;;;12.00;9.33;;;;;-0.21;80.18;101115.25;6184972;23;9604;-73
2022/01/17 06:49:10;;;;;;;;;12.67;12.67;;;;;-0.40;80.76;101088.31;6184841;23;8828;-73
2022/01/17 06:52:06;;;;;;;;;18.67;18.00;;;;;-0.14;80.46;101067.78;6184766;23;8786;-73
2022/01/17 06:55:02;;;;;;;;;15.67;15.67;;;;;-0.13;79.88;101044.97;6184589;23;8793;-72
2022/01/17 06:57:58;;;;;;;;;7.00;7.00;;;;;-0.05;80.75;101041.00;6184557;23;8810;-73
2022/01/17 07:00:54;;;;;;;;;12.67;12.67;;;;;-0.03;80.08;101027.97;6184779;23;8806;-73
2022/01/17 07:03:50;;;;;;;;;15.67;15.67;;;;;0.05;80.84;101024.78;6184483;23;9525;-73
2022/01/17 07:06:46;;;;;;;;;9.00;9.00;;;;;-0.01;81.12;101033.97;6184549;23;8884;-74
2022/01/17 07:09:41;;;;;;;;;16.33;16.33;;;;;-0.06;81.19;101044.78;6184683;23;8895;-74
2022/01/17 07:12:37;;;;;;;;;12.33;12.33;;;;;0.13;81.86;101080.66;6184963;23;8820;-73
2022/01/17 07:15:33;;;;;;;;;14.33;14.33;;;;;0.11;82.06;101129.03;6184761;23;8810;-74
2022/01/17 07:18:28;;;;;;;;;13.67;13.00;;;;;0.22;82.39;101153.41;6164806;23;8782;-74
2022/01/17 07:21:24;;;;;;;;;13.67;13.67;;;;;0.30;82.65;101129.56;6184661;23;8824;-74
2022/01/17 07:24:19;;;;;;;;;13.67;13.67;;;;;0.42;82.24;101097.63;6164790;23;8793;-74
2022/01/17 07:27:15;;;;;;;;;15.67;15.67;;;;;0.51;81.75;101063.44;6184474;23;8903;-73
2022/01/17 07:30:12;;;;;;;;;13.33;13.33;;;;;0.71;81.16;101060.94;6184557;23;9534;-71
2022/01/17 07:33:08;;;;;;;;;10.33;10.00;;;;;0.69;81.62;101065.84;6184359;23;8793;-71
2022/01/17 07:36:07;;;;;;;;;14.33;13.67;;;;;1.02;79.93;101105.66;6184273;23;8859;-73
2022/01/17 07:39:03;;;;;;;;;10.00;10.00;;;;;1.11;79.56;101111.44;6184301;23;8804;-71
2022/01/17 07:41:59;;;;;;;;;17.33;13.33;;;;;1.37;79.00;101102.41;6184008;23;11648;-71
2022/01/17 07:44:56;;;;;;;;;18.67;17.67;;;;;1.61;77.33;101094.72;6184078;23;11597;-71
2022/01/17 07:50:47;;;;;;;;;16.67;16.67;;;;;1.88;76.15;101055.63;6185129;23;11532;-72
2022/01/17 07:53:43;;;;;;;;;17.25;16.25;;;;;1.74;76.06;101022.53;6182899;23;12243;-72
2022/01/17 07:56:40;;;;;;;;;9.00;9.00;;;;;1.73;76.83;100987.34;6184808;23;11515;-70
2022/01/17 07:59:36;;;;;;;;;19.00;16.25;;;;;2.03;76.52;101009.31;6183661;23;11465;-72
2022/01/17 08:02:03;;;;;;;;;20.50;19.75;;;;;2.24;74.65;100991.13;6193677;23;11498;-71
2022/01/17 08:04:59;;;;;;;;;4.00;4.00;;;;;2.15;75.47;100958.09;6183112;23;11485;-70
2022/01/17 11:08:05;;;;;;;;;22.75;18.75;;;;;4.69;79.42;100551.28;5106487;27;1683557;-69
2022/01/17 11:10:45;;;;;;;;;16.00;16.00;;;;;4.93;77.67;100540.25;5138294;27;8851;-69
2022/01/17 11:13:47;;;;;;;;;11.00;11.00;;;;;4.99;76.80;100533.59;5130388;27;11704;-68
2022/01/17 11:16:43;;;;;;;;;13.75;13.75;;;;;5.19;76.60;100528.88;5139310;27;11472;-69
2022/01/17 11:22:57;;;;;;;;;14.75;14.75;;;;;5.39;75.96;100516.78;5146294;27;11485;-72
2022/01/17 11:25:55;;;;;;;;;15.00;12.50;;;;;5.39;75.78;100516.78;5129792;27;12359;-71
2022/01/17 11:28:54;;;;;;;;;12.00;12.00;;;;;5.20;76.84;100516.81;5116440;27;11452;-71
2022/01/17 11:31:50;;;;;;;;;12.50;12.50;;;;;5.41;75.98;100514.53;5130147;27;11495;-70
2022/01/17 11:34:46;;;;;;;;;14.75;13.00;;;;;5.26;76.32;100505.47;5121211;27;11441;-69
2022/01/17 11:37:45;;;;;;;;;12.75;12.75;;;;;4.99;77.64;100487.00;5150303;27;11472;-69
2022/01/17 11:40:33;;;;;;;;;16.00;16.00;;;;;5.23;76.61;100480.56;5151210;27;11510;-69
2022/01/17 11:43:32;;;;;;;;;12.75;12.75;;;;;5.16;76.76;100466.44;5147009;27;12250;-67
2022/01/17 11:46:03;;;;;;;;;16.50;16.50;;;;;5.13;76.84;100459.59;5140088;27;11575;-68
2022/01/17 11:49:03;;;;;;;;;16.00;16.00;;;;;5.19;77.05;100463.91;5124510;27;11476;-67
2022/01/17 11:51:48;;;;;;;;;14.75;14.75;;;;;5.02;78.18;100460.91;5112049;27;11540;-69
2022/01/17 11:54:31;;;;;;;;;11.25;11.00;;;;;5.08;77.51;100448.75;5130511;27;12389;-69
2022/01/17 11:57:04;;;;;;;;;11.75;11.00;;;;;5.11;77.75;100444.59;5113107;27;11511;-69
2022/01/17 11:59:34;;;;;;;;;14.00;14.00;;;;;5.14;77.83;100438.53;5131820;27;11568;-69
2022/01/17 12:02:18;;;;;;;;;12.75;12.75;;;;;5.07;78.27;100424.38;5141860;27;11625;-69
2022/01/17 12:05:08;;;;;;;;;13.50;12.50;;;;;5.09;78.15;100417.47;5112245;27;11516;-70
2022/01/17 12:07:53;;;;;;;;;13.75;13.75;;;;;4.92;78.90;100425.47;5130019;27;11490;-70
2022/01/17 12:10:24;;;;;;;;;17.00;14.00;;;;;4.98;79.08;100410.53;5130252;27;11554;-71
2022/01/17 12:13:16;;;;;;;;;11.50;11.50;;;;;4.65;80.20;100407.78;5130458;27;12271;-71
2022/01/17 12:16:06;;;;;;;;;13.25;13.25;;;;;4.85;80.12;100414.06;5129972;27;11569;-72
2022/01/17 12:18:39;;;;;;;;;12.00;12.00;;;;;4.94;79.45;100407.59;5121786;27;11490;-71
2022/01/17 12:21:40;;;;;;;;;14.50;14.50;;;;;5.00;79.04;100408.31;5127850;27;11487;-70
2022/01/17 12:24:38;;;;;;;;;8.75;8.75;;;;;4.84;79.45;100406.97;5115265;28;11484;-70
2022/01/17 12:27:14;;;;;;;;;14.75;14.75;;;;;4.55;81.18;100388.78;5110741;27;11562;-70
2022/01/17 12:30:12;;;;;;;;;8.25;8.25;;;;;4.40;82.04;100386.28;5135435;27;11587;-70
2022/01/17 12:33:32;;;;;;;;;11.00;10.50;;;;;4.29;83.00;100395.75;5134771;27;11502;-74
2022/01/17 12:36:31;;;;;;;;;12.50;12.50;;;;;4.28;83.10;100394.13;5106271;27;11448;-74
2022/01/17 12:39:28;;;;;;;;;18.50;18.50;;;;;4.22;83.52;100379.72;5125862;27;11457;-74
2022/01/17 12:42:24;;;;;;;;;3.50;3.50;;;;;4.16;84.31;100369.94;5131668;27;11520;-73
2022/01/17 12:45:00;;;;;;;;;15.00;12.50;;;;;4.18;84.11;100370.44;5125040;27;11581;-72
2022/01/17 12:47:33;;;;;;;;;13.50;13.50;;;;;4.26;84.61;100358.03;5116389;27;11514;-73
2022/01/17 12:50:05;;;;;;;;;10.75;10.75;;;;;4.16;85.60;100345.31;5111125;27;11506;-73
2022/01/17 12:52:33;;;;;;;;;10.00;10.00;;;;;4.02;87.67;100355.34;5123083;27;11505;-73
2022/01/17 12:55:03;;;;;;;;;9.00;9.00;;;;;3.75;89.98;100355.97;5118128;27;11465;-73
2022/01/17 12:57:59;;;;;;;;;11.00;11.00;;;;;3.73;92.86;100339.06;5102321;28;11454;-73
2022/01/17 13:00:27;;;;;;;;;10.25;10.25;;;;;3.74;92.45;100332.47;5115591;28;12241;-74
2022/01/17 13:03:18;;;;;;;;;16.50;16.50;;;;;3.77;93.58;100338.19;5100954;28;11490;-74
2022/01/17 13:05:46;;;;;;;;;15.00;15.00;;;;;3.89;93.56;100348.69;5115620;27;11572;-74
2022/01/17 13:08:15;;;;;;;;;12.75;12.75;;;;;3.71;94.55;100342.09;5113262;28;11460;-72
2022/01/17 13:10:49;;;;;;;;;14.75;12.75;;;;;3.65;94.98;100315.09;5115351;28;11495;-71
2022/01/17 13:13:17;;;;;;;;;12.25;12.25;;;;;3.74;95.02;100318.81;5115350;28;11501;-71
2022/01/17 13:15:56;;;;;;;;;15.50;14.75;;;;;3.74;96.03;100305.13;5097642;28;11487;-73
2022/01/17 13:18:27;;;;;;;;;17.25;17.25;;;;;3.62;95.57;100306.38;5114196;28;11510;-70
2022/01/17 13:20:57;;;;;;;;;9.50;8.50;;;;;3.59;96.65;100328.84;5115355;28;11516;-70
2022/01/17 13:24:00;;;;;;;;;11.00;11.00;;;;;3.67;95.66;100326.56;5117124;27;11523;-70
2022/01/17 13:26:38;;;;;;;;;16.00;16.00;;;;;3.66;96.68;100319.47;5129671;27;11562;-70
2022/01/17 13:29:10;;;;;;;;;11.50;11.50;;;;;3.54;97.33;100342.59;5126185;27;11611;-70
2022/01/17 13:32:10;;;;;;;;;13.50;12.25;;;;;3.70;97.28;100362.34;5114039;27;11491;-71
2022/01/17 13:34:52;;;;;;;;;14.50;14.50;;;;;3.38;97.53;100327.47;5110953;28;11537;-70
2022/01/17 13:37:19;;;;;;;;;8.50;8.50;;;;;3.35;97.54;100290.59;5114928;27;11494;-70
2022/01/17 13:40:15;;;;;;;;;16.25;16.25;;;;;3.23;97.79;100259.34;5113241;27;11506;-70
2022/01/17 13:43:11;;;;;;;;;11.50;11.50;;;;;3.18;96.36;100211.00;5113760;28;11453;-68
2022/01/17 13:46:00;;;;;;;;;12.00;11.75;;;;;3.12;96.85;100194.97;5129126;27;11652;-69
2022/01/17 13:48:29;;;;;;;;;11.00;11.00;;;;;3.37;95.87;100191.06;5134946;27;11485;-69
2022/01/17 13:51:02;;;;;;;;;10.50;10.50;;;;;3.17;96.37;100197.66;5134131;27;11477;-69
2022/01/17 13:53:32;;;;;;;;;13.50;13.00;;;;;3.34;96.38;100196.03;5116471;27;11493;-69
2022/01/17 13:56:06;;;;;;;;;9.00;8.25;;;;;3.43;95.14;100181.69;5106776;27;11508;-69
2022/01/17 13:59:04;;;;;;;;;8.00;8.00;;;;;3.23;95.70;100183.63;5118029;27;11600;-69
2022/01/17 14:01:36;;;;;;;;;8.75;8.75;;;;;3.46;94.90;100189.31;5132284;27;11459;-69
2022/01/17 14:04:32;;;;;;;;;9.00;9.00;;;;;3.31;94.93;100182.97;5120573;27;11563;-69
2022/01/17 14:07:00;;;;;;;;;15.00;13.25;;;;;3.44;94.81;100175.13;5119091;27;11439;-69
2022/01/17 14:09:33;;;;;;;;;12.00;12.00;;;;;3.31;95.21;100173.94;5119596;27;11545;-70
2022/01/17 14:12:09;;;;;;;;;16.50;16.50;;;;;3.47;95.44;100169.88;5106916;27;11499;-70
2022/01/17 14:14:57;;;;;;;;;15.00;14.50;;;;;3.45;95.31;100171.28;5134998;27;11480;-70
2022/01/17 14:17:28;;;;;;;;;17.25;17.25;;;;;3.71;95.66;100156.13;5113991;27;11534;-70
2022/01/17 14:20:28;;;;;;;;;17.50;17.50;;;;;3.64;95.56;100142.00;5119611;27;11491;-70
2022/01/17 14:23:32;;;;;;;;;18.50;18.50;;;;;3.78;95.58;100147.53;5119869;27;11476;-70
2022/01/17 14:26:05;;;;;;;;;17.00;16.75;;;;;3.77;95.54;100149.47;5117007;27;11525;-70
2022/01/17 14:28:34;;;;;;;;;13.50;11.50;;;;;3.72;96.00;100146.81;5116104;27;11497;-70
2022/01/17 14:31:14;;;;;;;;;12.75;12.50;;;;;3.72;95.85;100135.06;5134544;27;12226;-70
2022/01/17 14:33:48;;;;;;;;;19.75;19.75;;;;;3.78;95.49;100133.88;5116432;27;12124;-70
2022/01/17 14:36:18;;;;;;;;;22.50;22.50;;;;;3.88;95.37;100117.25;5113670;28;11494;-70
2022/01/17 14:38:51;;;;;;;;;17.00;15.75;;;;;3.80;95.09;100115.22;5112656;28;11487;-69
2022/01/17 14:41:32;;;;;;;;;13.50;13.50;;;;;3.89;94.45;100105.22;5113333;28;11506;-71
2022/01/17 14:44:05;;;;;;;;;16.25;16.25;;;;;3.87;94.15;100107.44;5113542;28;12306;-70
2022/01/17 14:46:46;;;;;;;;;12.50;12.00;;;;;3.79;94.12;100103.47;5117201;27;11513;-70
2022/01/17 14:49:19;;;;;;;;;19.25;18.00;;;;;3.86;93.90;100097.63;5116254;27;11621;-70
2022/01/17 14:51:49;;;;;;;;;9.25;9.25;;;;;3.73;93.90;100081.97;5134435;27;11518;-70
2022/01/17 14:54:25;;;;;;;;;22.00;18.75;;;;;3.76;93.57;100081.38;5134209;27;11500;-70
2022/01/17 15:00:16;;;;;;;;;18.75;18.00;;;;;3.73;94.23;100063.63;5134050;27;11512;-70
2022/01/17 15:03:28;;;;;;;;;15.50;15.50;;;;;3.72;94.08;100063.94;5134132;27;11604;-71
2022/01/17 15:05:38;;;;;;;;;14.00;14.00;;;;;3.82;93.62;100052.81;5124175;27;11520;-70
2022/01/17 15:08:08;;;;;;;;;14.00;14.00;;;;;3.86;93.73;100042.91;5134074;27;11464;-70
2022/01/17 15:10:36;;;;;;;;;13.75;13.25;;;;;3.81;93.36;100024.66;5133949;27;11612;-69
2022/01/17 15:13:07;;;;;;;;;13.00;13.00;;;;;3.79;93.38;100015.94;5116328;27;11565;-70
2022/01/17 15:15:37;;;;;;;;;19.00;17.25;;;;;3.92;93.48;100017.09;5133811;27;11489;-70
2022/01/17 15:18:11;;;;;;;;;13.00;13.00;;;;;3.82;92.96;100020.00;5116315;27;11501;-70
2022/01/17 15:20:41;;;;;;;;;10.50;10.50;;;;;3.81;93.30;100007.44;5133948;27;11484;-69
2022/01/17 15:23:12;;;;;;;;;12.00;12.00;;;;;3.89;92.96;100007.53;5116252;27;11429;-70
2022/01/17 15:25:41;;;;;;;;;21.00;21.00;;;;;3.88;92.93;99999.63;5133792;27;11471;-69
2022/01/17 15:28:10;;;;;;;;;16.00;15.75;;;;;3.81;93.06;99991.03;5115672;27;11552;-69
2022/01/17 15:30:44;;;;;;;;;12.50;12.50;;;;;3.73;93.30;99992.53;5133590;27;11524;-69
2022/01/17 15:33:12;;;;;;;;;18.25;18.25;;;;;3.75;93.39;100008.63;5115890;27;11564;-72
2022/01/17 15:35:42;;;;;;;;;19.75;19.75;;;;;3.70;93.83;100003.28;5133991;27;11484;-73
2022/01/17 15:38:11;;;;;;;;;19.25;18.75;;;;;3.84;94.05;100004.09;5132627;27;11504;-72
2022/01/17 15:40:42;;;;;;;;;17.50;17.50;;;;;3.93;93.03;99988.59;5133669;27;11486;-74
2022/01/17 15:43:10;;;;;;;;;21.50;17.75;;;;;4.02;92.31;99999.66;5133752;27;11514;-72
2022/01/17 15:45:39;;;;;;;;;26.25;21.75;;;;;3.94;92.60;100000.34;5133683;27;11537;-73
2022/01/17 15:48:08;;;;;;;;;15.00;14.00;;;;;3.96;92.55;100004.41;5133629;27;11510;-72
2022/01/17 15:50:36;;;;;;;;;18.25;17.25;;;;;3.89;92.33;99998.53;5133925;27;11540;-73
2022/01/17 15:53:07;;;;;;;;;15.25;15.25;;;;;3.88;92.34;99992.25;5134917;27;11572;-73
2022/01/17 15:55:35;;;;;;;;;16.00;16.00;;;;;4.00;91.93;99988.22;5137672;27;11511;-73
2022/01/17 15:58:03;;;;;;;;;10.25;9.25;;;;;3.83;92.68;99988.78;5137537;27;11485;-73
2022/01/17 16:00:33;;;;;;;;;20.00;19.75;;;;;3.98;92.33;99983.00;5137257;27;11477;-73
2022/01/17 16:03:01;;;;;;;;;11.75;10.25;;;;;3.92;92.66;99981.50;5137443;27;11497;-73
2022/01/17 16:05:32;;;;;;;;;15.75;15.75;;;;;3.94;92.58;99971.06;5119310;27;11557;-73
2022/01/17 16:08:00;;;;;;;;;21.50;20.25;;;;;3.89;92.50;99961.03;5136089;27;11548;-73
2022/01/17 16:10:34;;;;;;;;;17.00;16.75;;;;;3.95;92.67;99953.53;5120029;27;11500;-73
2022/01/17 16:13:02;;;;;;;;;20.25;20.25;;;;;3.99;92.46;99956.47;5119084;27;11541;-73
2022/01/17 16:15:32;;;;;;;;;15.00;14.00;;;;;3.81;93.26;99969.13;5119354;27;11504;-73
2022/01/17 16:18:09;;;;;;;;;17.50;17.50;;;;;3.92;93.04;99958.81;5137165;27;11536;-73
2022/01/17 16:20:37;;;;;;;;;17.25;17.25;;;;;3.95;92.40;99942.59;5137217;27;11619;-73